Time;durP1;ratioP1;P1;durP2;ratioP2;P2;SDS_P1;SDS_P2;PMS_P1;PMS_P2;Temp;Humidity;BMP_temperature;BMP_pressure;BME280_temperature;BME280_humidity;BME280_pressure;Samples;Min_cycle;Max_cycle;Signal;HPM_P1;HPM_P2
2023/02/04 00:00:53;;;;;;;;;15.25;14.75;;;;;12.74;66.45;102988.13;2061668;28;46197;-62
2023/02/04 00:01:54;;;;;;;;;12.25;12.25;;;;;12.72;66.50;102981.91;2065829;27;46331;-63
2023/02/04 00:02:54;;;;;;;;;16.00;14.00;;;;;12.71;66.56;102987.22;2070417;28;46214;-63
2023/02/04 00:03:54;;;;;;;;;13.50;13.50;;;;;12.70;66.53;102988.06;2070715;28;47194;-63
2023/02/04 00:04:58;;;;;;;;;11.50;11.50;;;;;12.70;66.50;102991.63;2062060;28;46230;-63
2023/02/04 00:05:58;;;;;;;;;11.20;11.20;;;;;12.69;66.58;102984.50;2054487;28;46850;-63
2023/02/04 00:06:58;;;;;;;;;17.50;16.00;;;;;12.69;66.54;102989.84;2065576;28;45103;-61
2023/02/04 00:07:59;;;;;;;;;15.50;13.00;;;;;12.68;66.55;102991.63;2070565;27;46532;-62
2023/02/04 00:08:59;;;;;;;;;12.75;12.75;;;;;12.70;66.73;102986.28;2070855;27;46523;-63
2023/02/04 00:09:59;;;;;;;;;14.00;11.50;;;;;12.71;66.56;102988.09;2070484;27;46230;-64
2023/02/04 00:11:00;;;;;;;;;12.50;12.50;;;;;12.71;66.65;102987.22;2070718;28;46350;-63
2023/02/04 00:12:00;;;;;;;;;9.25;8.25;;;;;12.71;66.65;102979.22;2070501;28;46252;-63
2023/02/04 00:13:01;;;;;;;;;13.25;12.25;;;;;12.70;66.65;102980.97;2070669;27;46243;-62
2023/02/04 00:14:01;;;;;;;;;13.00;13.00;;;;;12.70;66.71;102985.41;2071699;27;45663;-63
2023/02/04 00:15:02;;;;;;;;;13.25;12.25;;;;;12.70;66.74;102986.28;2065980;27;47188;-60
2023/02/04 00:16:02;;;;;;;;;16.75;15.25;;;;;12.70;66.65;102985.41;2070857;28;46669;-62
2023/02/04 00:17:03;;;;;;;;;12.50;12.50;;;;;12.68;66.65;102978.28;2070349;28;46517;-62
2023/02/04 00:18:04;;;;;;;;;16.25;13.50;;;;;12.71;66.75;102995.22;2061712;28;46268;-62
2023/02/04 00:19:04;;;;;;;;;13.60;12.40;;;;;12.68;66.64;102985.41;2095279;28;46273;-62
2023/02/04 00:20:05;;;;;;;;;13.00;12.00;;;;;12.68;66.46;102974.75;2103535;28;46549;-63
2023/02/04 00:21:05;;;;;;;;;10.50;10.25;;;;;12.68;66.70;102986.28;2062169;28;46270;-62
2023/02/04 00:22:07;;;;;;;;;14.25;14.25;;;;;12.70;66.87;102980.06;2061616;28;46556;-63
2023/02/04 00:23:07;;;;;;;;;12.20;12.20;;;;;12.68;66.89;102986.28;2068108;28;46300;-62
2023/02/04 00:24:08;;;;;;;;;15.00;15.00;;;;;12.69;66.80;102979.19;2062437;28;46598;-62
2023/02/04 00:25:09;;;;;;;;;16.20;14.00;;;;;12.70;66.78;102988.06;2063093;28;46311;-62
2023/02/04 00:26:09;;;;;;;;;11.00;11.00;;;;;12.71;66.75;102980.13;2070000;28;46290;-63
2023/02/04 00:27:09;;;;;;;;;12.00;11.00;;;;;12.71;66.85;102981.88;2062431;28;46229;-63
2023/02/04 00:28:10;;;;;;;;;13.75;12.75;;;;;12.71;66.74;102982.78;2066062;28;46510;-63
2023/02/04 00:29:10;;;;;;;;;14.00;13.00;;;;;12.71;66.68;102974.78;2070280;28;46838;-62
2023/02/04 00:30:11;;;;;;;;;10.75;10.75;;;;;12.70;66.77;102980.97;2070605;28;46672;-62
2023/02/04 00:31:11;;;;;;;;;14.60;13.00;;;;;12.71;66.93;102976.56;2070762;28;46604;-62
2023/02/04 00:32:12;;;;;;;;;11.00;9.25;;;;;12.71;66.65;102973.91;2070567;28;46421;-62
2023/02/04 00:33:12;;;;;;;;;13.00;13.00;;;;;12.70;66.79;102977.41;2065030;28;46271;-63
2023/02/04 00:34:13;;;;;;;;;14.00;12.75;;;;;12.70;66.91;102970.31;2062942;28;46098;-63
2023/02/04 00:35:13;;;;;;;;;14.75;12.75;;;;;12.70;66.75;102977.41;2066265;28;45914;-62
2023/02/04 00:36:13;;;;;;;;;11.50;11.50;;;;;12.70;66.84;102977.41;2066473;28;46683;-61
2023/02/04 00:37:14;;;;;;;;;14.00;14.00;;;;;12.68;66.94;102972.06;2053745;28;46393;-62
2023/02/04 00:38:14;;;;;;;;;12.00;12.00;;;;;12.69;66.98;102968.53;2060316;28;45736;-61
2023/02/04 00:39:15;;;;;;;;;11.50;11.25;;;;;12.69;66.86;102971.19;2064147;28;46301;-62
2023/02/04 00:40:15;;;;;;;;;18.50;15.50;;;;;12.70;66.80;102967.66;2061813;28;46799;-62
2023/02/04 00:41:16;;;;;;;;;11.00;10.25;;;;;12.70;66.70;102964.97;2063470;28;46466;-60
2023/02/04 00:42:16;;;;;;;;;14.75;14.75;;;;;12.69;66.88;102963.19;2068416;28;45828;-61
2023/02/04 00:43:16;;;;;;;;;10.75;8.75;;;;;12.68;66.81;102962.31;2062482;28;46637;-62
2023/02/04 00:44:17;;;;;;;;;15.00;14.00;;;;;12.67;66.81;102963.19;2062249;28;46250;-61
2023/02/04 00:45:17;;;;;;;;;15.00;15.00;;;;;12.66;66.80;102969.41;2062291;28;46865;-60
2023/02/04 00:46:17;;;;;;;;;22.00;19.25;;;;;12.66;66.99;102961.41;2064853;28;45920;-61
2023/02/04 00:47:18;;;;;;;;;21.00;19.50;;;;;12.65;67.01;102962.31;2070605;27;45547;-60
2023/02/04 00:48:18;;;;;;;;;16.00;14.50;;;;;12.66;66.99;102964.09;2070245;28;46232;-61
2023/02/04 00:49:18;;;;;;;;;12.25;11.75;;;;;12.65;66.99;102967.63;2069992;28;48370;-60
2023/02/04 00:50:19;;;;;;;;;14.25;14.25;;;;;12.63;67.08;102964.06;2062537;28;46752;-61
2023/02/04 00:51:19;;;;;;;;;12.25;12.25;;;;;12.65;67.03;102966.75;2068270;28;46651;-62
2023/02/04 00:52:19;;;;;;;;;15.25;13.75;;;;;12.63;67.06;102966.72;2078461;28;46538;-61
2023/02/04 00:53:20;;;;;;;;;12.75;12.75;;;;;12.62;67.13;102972.94;2072280;28;46646;-60
2023/02/04 00:54:20;;;;;;;;;16.00;14.25;;;;;12.63;67.18;102974.72;2061544;28;46788;-61
2023/02/04 00:55:20;;;;;;;;;13.25;13.00;;;;;12.63;67.17;102966.72;2061443;28;46918;-61
2023/02/04 00:56:21;;;;;;;;;16.50;13.00;;;;;12.63;67.14;102963.19;2069752;28;46834;-61
2023/02/04 00:57:21;;;;;;;;;18.25;16.25;;;;;12.62;67.41;102966.72;2061609;28;46816;-60
2023/02/04 00:58:21;;;;;;;;;13.25;12.00;;;;;12.62;67.25;102974.72;2053763;28;46317;-61
2023/02/04 00:59:22;;;;;;;;;13.25;13.25;;;;;12.61;67.21;102965.84;2062073;28;45812;-61
2023/02/04 01:00:22;;;;;;;;;18.25;14.75;;;;;12.60;67.39;102974.72;2062051;28;46343;-62
2023/02/04 01:01:23;;;;;;;;;14.00;13.00;;;;;12.61;67.09;102970.28;2068170;28;45747;-62
2023/02/04 01:02:23;;;;;;;;;13.25;13.25;;;;;12.60;67.33;102979.16;2069676;28;46347;-62
2023/02/04 01:03:23;;;;;;;;;14.75;14.75;;;;;12.61;67.42;102981.81;2053638;28;46429;-61
2023/02/04 01:04:24;;;;;;;;;17.75;15.25;;;;;12.62;67.41;102980.94;2056703;28;46278;-60
2023/02/04 01:05:25;;;;;;;;;14.20;13.60;;;;;12.63;67.27;102977.38;2065278;28;46449;-61
2023/02/04 01:06:25;;;;;;;;;15.75;14.25;;;;;12.64;67.35;102980.94;2070328;27;46196;-60
2023/02/04 01:07:26;;;;;;;;;13.00;13.00;;;;;12.65;67.35;102980.94;2070315;28;46323;-62
2023/02/04 01:08:26;;;;;;;;;15.25;13.25;;;;;12.66;67.30;102984.50;2070334;28;46251;-62
2023/02/04 01:09:26;;;;;;;;;15.00;13.50;;;;;12.66;67.17;102989.84;2069447;28;46956;-62
2023/02/04 01:10:27;;;;;;;;;13.50;13.00;;;;;12.65;67.22;102980.94;2069885;28;46277;-61
2023/02/04 01:11:29;;;;;;;;;13.25;13.25;;;;;12.65;67.37;102986.28;2070351;28;46912;-61
2023/02/04 01:12:29;;;;;;;;;22.40;17.20;;;;;12.65;67.44;102985.38;2069659;28;47086;-61
2023/02/04 01:13:30;;;;;;;;;16.50;14.00;;;;;12.65;67.44;102988.94;2070609;28;45220;-62
2023/02/04 01:14:30;;;;;;;;;15.25;15.25;;;;;12.66;67.64;102981.84;2076947;28;46653;-62
2023/02/04 01:15:31;;;;;;;;;19.50;18.75;;;;;12.66;67.41;102992.50;2076374;28;46286;-62
2023/02/04 01:16:31;;;;;;;;;15.75;14.75;;;;;12.66;67.44;102979.19;2059723;28;46699;-63
2023/02/04 01:17:31;;;;;;;;;17.25;15.25;;;;;12.65;67.62;102988.06;2061295;28;46245;-62
2023/02/04 01:18:32;;;;;;;;;15.25;14.00;;;;;12.65;67.47;102980.94;2061537;28;46442;-62
2023/02/04 01:19:32;;;;;;;;;16.50;13.00;;;;;12.65;67.37;102988.06;2061433;28;46858;-62
2023/02/04 01:20:32;;;;;;;;;16.75;14.75;;;;;12.64;67.48;102979.16;2070033;28;46305;-63
2023/02/04 01:21:33;;;;;;;;;15.50;11.50;;;;;12.64;67.57;102988.94;2070319;28;46756;-62
2023/02/04 01:22:33;;;;;;;;;18.00;16.00;;;;;12.62;67.60;102988.94;2070634;28;45910;-60
2023/02/04 01:23:34;;;;;;;;;15.50;14.25;;;;;12.61;67.54;102995.16;2070230;28;46250;-61
2023/02/04 01:24:34;;;;;;;;;15.50;14.75;;;;;12.64;67.53;102996.94;2070350;27;46813;-62
2023/02/04 01:25:35;;;;;;;;;16.25;14.25;;;;;12.64;67.54;102994.25;2070247;28;46670;-62
2023/02/04 01:26:35;;;;;;;;;15.50;15.50;;;;;12.66;67.60;102989.84;2060756;27;46505;-62
2023/02/04 01:27:35;;;;;;;;;14.50;14.00;;;;;12.67;67.63;102996.94;2064929;27;45805;-61
2023/02/04 01:28:36;;;;;;;;;14.25;14.00;;;;;12.66;67.63;102984.50;2060226;28;47724;-62
2023/02/04 01:29:36;;;;;;;;;15.75;14.75;;;;;12.64;67.66;102992.50;2060942;28;46459;-64
2023/02/04 01:30:36;;;;;;;;;15.50;15.50;;;;;12.65;67.36;102994.28;2065749;27;47104;-63
2023/02/04 01:31:37;;;;;;;;;12.50;12.50;;;;;12.64;67.66;102992.50;2068635;28;45853;-62
2023/02/04 01:32:37;;;;;;;;;17.00;14.75;;;;;12.64;67.68;102991.59;2062989;28;46673;-62
2023/02/04 01:33:37;;;;;;;;;16.25;14.75;;;;;12.65;67.81;102991.59;2065032;28;46499;-61
2023/02/04 01:34:38;;;;;;;;;16.50;16.25;;;;;12.64;67.63;102992.50;2070363;28;46591;-63
2023/02/04 01:35:38;;;;;;;;;12.25;11.25;;;;;12.63;67.65;102993.38;2065732;28;46701;-61
2023/02/04 01:36:38;;;;;;;;;16.25;15.75;;;;;12.65;67.71;102996.94;2066081;28;46569;-61
2023/02/04 01:37:39;;;;;;;;;17.25;15.75;;;;;12.64;67.79;102991.59;2065651;28;46654;-62
2023/02/04 01:38:39;;;;;;;;;14.75;14.75;;;;;12.67;67.90;102996.94;2054301;28;45911;-62
2023/02/04 01:39:39;;;;;;;;;15.50;15.50;;;;;12.67;67.86;102999.59;2057054;28;46831;-61
2023/02/04 01:40:41;;;;;;;;;18.00;18.00;;;;;12.68;67.75;102994.28;2066842;28;46285;-61
2023/02/04 01:41:41;;;;;;;;;14.80;13.40;;;;;12.67;67.89;102994.28;2066918;27;46594;-61
2023/02/04 01:42:41;;;;;;;;;15.25;15.00;;;;;12.68;67.82;102998.72;2060234;28;46513;-63
2023/02/04 01:43:42;;;;;;;;;14.25;14.25;;;;;12.68;67.88;103001.38;2058798;28;46775;-62
2023/02/04 01:44:42;;;;;;;;;17.25;15.75;;;;;12.67;67.75;102997.84;2066446;27;46279;-62
2023/02/04 01:45:45;;;;;;;;;14.50;12.50;;;;;12.68;67.85;103004.03;2066378;28;47155;-62
2023/02/04 01:46:45;;;;;;;;;17.00;15.20;;;;;12.67;67.92;102997.84;2056347;28;46508;-63
2023/02/04 01:47:46;;;;;;;;;16.00;15.00;;;;;12.68;67.87;103004.03;2059361;28;46489;-64
2023/02/04 01:48:46;;;;;;;;;15.50;14.50;;;;;12.68;67.91;102996.06;2065490;28;46494;-62
2023/02/04 01:49:51;;;;;;;;;16.75;16.75;;;;;12.68;67.84;102996.94;2063863;28;46721;-62
2023/02/04 01:51:01;;;;;;;;;14.00;14.00;;;;;12.68;68.04;102996.06;2063955;28;46663;-62
2023/02/04 01:52:02;;;;;;;;;14.80;14.00;;;;;12.70;67.80;102996.06;2059534;28;46410;-62
2023/02/04 01:53:03;;;;;;;;;13.50;13.00;;;;;12.70;67.68;103007.59;2059260;28;46312;-63
2023/02/04 01:54:03;;;;;;;;;16.50;16.25;;;;;12.71;68.01;103003.19;2063883;28;46697;-62
2023/02/04 01:55:05;;;;;;;;;17.75;16.00;;;;;12.72;68.07;103000.53;2058495;28;46544;-62
2023/02/04 01:56:16;;;;;;;;;15.00;15.00;;;;;12.73;67.99;102999.66;2056246;28;46499;-61
2023/02/04 01:57:16;;;;;;;;;17.00;15.00;;;;;12.71;67.98;102993.44;2064683;28;46617;-62
2023/02/04 01:58:18;;;;;;;;;19.25;16.25;;;;;12.71;68.00;103001.44;2065003;28;45620;-60
2023/02/04 01:59:18;;;;;;;;;18.60;16.20;;;;;12.70;68.03;102998.72;2067699;28;45704;-62
2023/02/04 02:00:27;;;;;;;;;14.25;14.25;;;;;12.69;68.05;102995.16;2063928;28;46394;-60
2023/02/04 02:01:42;;;;;;;;;16.20;15.20;;;;;12.70;67.85;102990.72;2067045;28;46876;-62
2023/02/04 02:02:49;;;;;;;;;18.20;15.60;;;;;12.67;68.28;102989.84;2064300;28;46361;-61
2023/02/04 02:03:49;;;;;;;;;22.40;18.20;;;;;12.65;68.20;102996.94;2064454;28;46201;-62
2023/02/04 02:04:50;;;;;;;;;15.75;14.50;;;;;12.67;68.16;102988.94;2066488;28;46562;-62
2023/02/04 02:05:52;;;;;;;;;13.50;13.50;;;;;12.67;68.14;102991.59;2098551;28;47412;-61
2023/02/04 02:06:57;;;;;;;;;17.60;16.40;;;;;12.67;68.23;102991.59;2098078;28;46603;-62
2023/02/04 02:08:00;;;;;;;;;21.20;17.80;;;;;12.66;68.13;102990.72;2066787;28;46723;-61
2023/02/04 02:09:01;;;;;;;;;17.40;17.40;;;;;12.65;67.95;102990.72;2064758;28;46338;-62
2023/02/04 02:10:05;;;;;;;;;17.60;17.00;;;;;12.64;68.18;102989.81;2063991;28;46328;-61
2023/02/04 02:11:05;;;;;;;;;21.40;17.00;;;;;12.66;68.10;102992.50;2064108;28;46695;-61
2023/02/04 02:12:05;;;;;;;;;21.25;20.00;;;;;12.65;68.33;102988.94;2064034;27;46372;-62
2023/02/04 02:13:09;;;;;;;;;16.75;16.25;;;;;12.65;68.24;102998.72;2063708;27;46934;-63
2023/02/04 02:14:10;;;;;;;;;17.80;15.80;;;;;12.66;68.22;102992.50;2067421;28;46522;-62
2023/02/04 02:15:12;;;;;;;;;15.20;14.60;;;;;12.65;68.33;102988.06;2059281;28;46612;-62
2023/02/04 02:16:13;;;;;;;;;19.00;17.20;;;;;12.64;68.32;102983.59;2056290;28;46376;-62
2023/02/04 02:17:13;;;;;;;;;22.75;19.25;;;;;12.64;68.33;102980.94;2055811;28;46903;-61
2023/02/04 02:18:14;;;;;;;;;19.00;19.00;;;;;12.64;68.28;102989.81;2055585;28;46519;-61
2023/02/04 02:19:25;;;;;;;;;19.00;19.00;;;;;12.63;68.35;102980.06;2063962;28;46251;-61
2023/02/04 02:20:28;;;;;;;;;17.00;15.80;;;;;12.64;68.32;102986.28;2055436;28;46648;-62
2023/02/04 02:21:50;;;;;;;;;20.00;16.80;;;;;12.63;68.32;102982.72;2058859;28;46974;-60
2023/02/04 02:23:11;;;;;;;;;17.00;16.20;;;;;12.62;68.27;102982.72;2064091;28;46616;-61
2023/02/04 02:24:38;;;;;;;;;22.00;19.20;;;;;12.60;68.41;102980.03;2064241;28;46569;-63
2023/02/04 02:25:38;;;;;;;;;19.00;17.40;;;;;12.61;68.61;102972.94;2078211;28;46344;-61
2023/02/04 02:26:39;;;;;;;;;21.25;17.75;;;;;12.60;68.42;102977.38;2078708;28;46621;-63
2023/02/04 02:27:40;;;;;;;;;15.00;14.75;;;;;12.60;68.54;102973.81;2075653;28;46240;-62
2023/02/04 02:28:41;;;;;;;;;17.80;17.80;;;;;12.60;68.59;102976.50;2075212;28;46365;-62
2023/02/04 02:29:42;;;;;;;;;17.75;17.75;;;;;12.60;68.73;102973.81;2078431;28;46482;-62
2023/02/04 02:30:47;;;;;;;;;18.00;17.00;;;;;12.60;68.60;102973.81;2078748;28;46735;-62
2023/02/04 02:31:49;;;;;;;;;17.20;17.20;;;;;12.60;68.78;102973.81;2079204;28;46434;-63
2023/02/04 02:32:51;;;;;;;;;18.80;17.60;;;;;12.59;68.52;102977.38;2078421;28;46376;-62
2023/02/04 02:33:51;;;;;;;;;17.60;16.60;;;;;12.60;68.61;102974.72;2077785;28;46162;-61
2023/02/04 02:34:51;;;;;;;;;12.00;12.00;;;;;12.60;68.61;102972.06;2077736;28;46608;-62
2023/02/04 02:35:52;;;;;;;;;19.50;18.50;;;;;12.59;68.62;102975.59;2078205;28;46479;-62
2023/02/04 02:36:52;;;;;;;;;20.75;18.75;;;;;12.60;68.71;102974.72;2078646;28;46301;-61
2023/02/04 02:37:53;;;;;;;;;21.50;18.75;;;;;12.60;68.81;102977.38;2078043;28;46462;-61
2023/02/04 02:38:54;;;;;;;;;17.50;17.00;;;;;12.61;68.86;102975.59;2077449;28;45923;-62
2023/02/04 02:39:55;;;;;;;;;23.40;21.80;;;;;12.61;68.69;102971.16;2078743;28;46989;-60
2023/02/04 02:40:55;;;;;;;;;16.75;16.75;;;;;12.61;68.67;102965.84;2077386;28;46464;-62
2023/02/04 02:41:57;;;;;;;;;14.00;13.00;;;;;12.61;68.84;102973.84;2079147;28;46411;-62
2023/02/04 02:42:57;;;;;;;;;20.20;19.80;;;;;12.62;68.65;102978.28;2083176;28;46914;-61
2023/02/04 02:43:57;;;;;;;;;20.50;20.50;;;;;12.62;68.53;102974.72;2087688;28;46438;-61
2023/02/04 02:44:59;;;;;;;;;16.25;16.00;;;;;12.61;68.74;102971.16;2079329;28;46606;-62
2023/02/04 02:46:00;;;;;;;;;15.40;14.80;;;;;12.61;68.73;102975.59;2079308;28;46901;-62
2023/02/04 02:47:01;;;;;;;;;18.20;18.20;;;;;12.61;68.82;102980.94;2078920;28;46168;-61
2023/02/04 02:48:02;;;;;;;;;16.75;16.00;;;;;12.60;68.75;102980.03;2079138;28;46703;-63
2023/02/04 02:49:02;;;;;;;;;19.50;18.25;;;;;12.60;68.88;102980.03;2079492;28;46567;-60
2023/02/04 02:50:03;;;;;;;;;20.00;17.25;;;;;12.61;68.88;102986.25;2079632;28;46738;-63
2023/02/04 02:51:03;;;;;;;;;18.75;18.50;;;;;12.61;69.04;102978.28;2079303;28;46500;-62
2023/02/04 02:52:03;;;;;;;;;18.50;17.00;;;;;12.63;68.91;102981.81;2079790;28;45478;-61
2023/02/04 02:53:09;;;;;;;;;21.25;20.75;;;;;12.62;68.91;102988.94;2079385;28;47218;-61
2023/02/04 02:54:21;;;;;;;;;20.40;18.20;;;;;12.61;68.84;102976.50;2079464;28;45720;-61
2023/02/04 02:55:24;;;;;;;;;19.40;18.80;;;;;12.62;68.98;102972.94;2070125;28;46330;-60
2023/02/04 02:56:25;;;;;;;;;15.20;15.20;;;;;12.63;68.87;102976.50;2071603;28;46143;-61
2023/02/04 02:57:25;;;;;;;;;17.25;17.25;;;;;12.63;68.82;102981.81;2079380;28;46488;-60
2023/02/04 02:58:31;;;;;;;;;21.75;19.00;;;;;12.63;68.80;102979.16;2079761;28;45709;-61
2023/02/04 02:59:32;;;;;;;;;17.60;15.60;;;;;12.63;68.91;102976.50;2079274;28;46168;-59
2023/02/04 03:00:32;;;;;;;;;16.50;14.50;;;;;12.63;69.03;102974.72;2079587;28;46546;-60
2023/02/04 03:01:33;;;;;;;;;20.50;20.25;;;;;12.63;68.84;102979.16;2078931;28;46499;-61
2023/02/04 03:02:33;;;;;;;;;19.75;19.75;;;;;12.62;69.00;102975.63;2077065;28;46878;-62
2023/02/04 03:03:41;;;;;;;;;17.75;15.50;;;;;12.61;68.93;102976.50;2053706;28;46684;-64
2023/02/04 03:04:49;;;;;;;;;19.00;16.60;;;;;12.61;69.13;102979.16;2053611;28;46420;-62
2023/02/04 03:05:55;;;;;;;;;19.00;16.40;;;;;12.62;69.00;102982.72;2082938;28;46474;-63
2023/02/04 03:06:55;;;;;;;;;15.20;14.60;;;;;12.61;68.87;102979.16;2093281;28;45569;-62
2023/02/04 03:07:56;;;;;;;;;16.00;14.00;;;;;12.61;68.82;102979.16;2072757;27;46551;-61
2023/02/04 03:08:56;;;;;;;;;17.75;17.00;;;;;12.61;68.84;102987.16;2064182;27;46449;-62
2023/02/04 03:09:57;;;;;;;;;17.00;15.75;;;;;12.60;68.96;102981.81;2066200;27;46406;-60
2023/02/04 03:10:57;;;;;;;;;18.25;16.00;;;;;12.59;68.94;102985.38;2063897;27;46169;-63
2023/02/04 03:11:58;;;;;;;;;17.25;17.25;;;;;12.58;68.84;102980.94;2064200;28;46645;-60
2023/02/04 03:12:59;;;;;;;;;18.00;16.25;;;;;12.57;68.99;102976.44;2065261;27;46263;-62
2023/02/04 03:14:02;;;;;;;;;19.25;17.25;;;;;12.55;68.93;102983.53;2068828;27;46809;-62
2023/02/04 03:15:04;;;;;;;;;18.80;15.00;;;;;12.55;69.12;102980.88;2066612;27;46317;-62
2023/02/04 03:16:06;;;;;;;;;18.00;18.00;;;;;12.55;69.08;102986.22;2067937;28;46045;-62
2023/02/04 03:17:09;;;;;;;;;20.00;20.00;;;;;12.54;69.08;102981.75;2066187;28;46995;-62
2023/02/04 03:18:11;;;;;;;;;18.20;18.20;;;;;12.54;69.10;102990.66;2064655;28;46332;-63
2023/02/04 03:19:11;;;;;;;;;18.40;17.60;;;;;12.53;69.17;102986.19;2070760;28;46764;-62
2023/02/04 03:20:14;;;;;;;;;17.25;17.25;;;;;12.53;69.21;102975.56;2070802;27;46379;-62
2023/02/04 03:21:15;;;;;;;;;20.00;15.80;;;;;12.54;69.16;102973.78;2070799;27;46663;-61
2023/02/04 03:22:15;;;;;;;;;17.75;17.75;;;;;12.54;69.04;102980.00;2070876;27;45249;-62
2023/02/04 03:23:16;;;;;;;;;16.50;16.25;;;;;12.54;69.07;102977.31;2070922;27;45986;-61
2023/02/04 03:24:17;;;;;;;;;19.00;15.00;;;;;12.55;69.33;102980.88;2070950;27;46573;-63
2023/02/04 03:25:19;;;;;;;;;17.25;16.75;;;;;12.55;69.16;102979.09;2070466;27;46305;-61
2023/02/04 03:26:19;;;;;;;;;17.20;17.20;;;;;12.54;69.16;102977.31;2070973;28;46797;-62
2023/02/04 03:27:20;;;;;;;;;17.25;16.00;;;;;12.54;69.14;102980.00;2070515;27;47988;-62
2023/02/04 03:28:20;;;;;;;;;19.75;17.50;;;;;12.53;69.26;102974.66;2071015;27;46290;-63
2023/02/04 03:29:20;;;;;;;;;18.25;18.25;;;;;12.55;69.25;102991.53;2071101;27;46322;-61
2023/02/04 03:30:21;;;;;;;;;17.50;15.75;;;;;12.55;68.86;102981.78;2070685;27;46449;-62
2023/02/04 03:31:22;;;;;;;;;21.40;18.20;;;;;12.55;69.13;102988.88;2070718;28;46416;-61
2023/02/04 03:32:22;;;;;;;;;20.75;19.50;;;;;12.55;69.26;102980.88;2070763;28;45983;-61
2023/02/04 03:33:25;;;;;;;;;19.00;18.25;;;;;12.54;69.38;102985.31;2070506;28;46407;-61
2023/02/04 03:34:25;;;;;;;;;12.80;12.00;;;;;12.56;69.24;102982.66;2070066;28;46019;-62
2023/02/04 03:35:26;;;;;;;;;19.00;17.75;;;;;12.57;69.32;102981.78;2068694;27;46686;-62
2023/02/04 03:36:26;;;;;;;;;15.50;15.50;;;;;12.57;69.21;102982.66;2069082;28;46141;-62
2023/02/04 03:37:26;;;;;;;;;17.50;15.25;;;;;12.56;69.24;102983.56;2062318;28;46651;-64
2023/02/04 03:38:27;;;;;;;;;20.00;17.75;;;;;12.56;69.33;102982.66;2066902;28;46473;-62
2023/02/04 03:39:27;;;;;;;;;20.75;20.50;;;;;12.56;69.27;102982.66;2070484;27;46725;-61
2023/02/04 03:40:28;;;;;;;;;20.25;20.00;;;;;12.54;69.32;102980.00;2063718;28;46101;-62
2023/02/04 03:41:29;;;;;;;;;17.20;16.40;;;;;12.55;69.31;102988.88;2071364;27;46642;-61
2023/02/04 03:42:29;;;;;;;;;17.50;17.00;;;;;12.55;69.14;102980.88;2070693;28;45946;-61
2023/02/04 03:43:30;;;;;;;;;19.25;18.25;;;;;12.55;69.30;102989.75;2065107;28;47642;-62
2023/02/04 03:44:30;;;;;;;;;16.50;16.25;;;;;12.55;69.30;102983.53;2066125;28;46416;-62
2023/02/04 03:45:30;;;;;;;;;16.00;16.00;;;;;12.55;69.33;102988.88;2069733;28;46232;-62
2023/02/04 03:46:30;;;;;;;;;20.75;17.00;;;;;12.55;69.21;102983.53;2066338;28;46142;-61
2023/02/04 03:47:31;;;;;;;;;16.00;15.00;;;;;12.55;69.34;102984.44;2070540;28;46529;-63
2023/02/04 03:48:31;;;;;;;;;19.75;18.50;;;;;12.57;69.40;102988.00;2070937;28;46548;-62
2023/02/04 03:49:31;;;;;;;;;19.50;17.50;;;;;12.57;69.08;102981.78;2070874;28;46343;-63
2023/02/04 03:50:32;;;;;;;;;23.00;19.50;;;;;12.57;69.46;102990.66;2070660;28;45482;-62
2023/02/04 03:51:32;;;;;;;;;16.75;15.75;;;;;12.59;69.44;102990.69;2054123;28;46294;-63
2023/02/04 03:52:33;;;;;;;;;17.50;16.50;;;;;12.59;69.33;102982.69;2053528;28;46434;-62
2023/02/04 03:53:33;;;;;;;;;17.25;16.50;;;;;12.60;69.39;102985.38;2070898;28;46738;-62
2023/02/04 03:54:33;;;;;;;;;18.00;18.00;;;;;12.61;69.32;102980.94;2092763;28;45727;-62
2023/02/04 03:55:34;;;;;;;;;16.75;16.25;;;;;12.62;69.31;102985.38;2087290;28;46158;-62
2023/02/04 03:56:35;;;;;;;;;17.80;17.00;;;;;12.62;69.26;102985.38;2068440;28;46870;-62
2023/02/04 03:57:35;;;;;;;;;20.25;18.25;;;;;12.62;69.24;102988.94;2070479;27;46252;-61
2023/02/04 03:58:35;;;;;;;;;14.75;14.75;;;;;12.62;69.10;102982.72;2070820;28;46399;-61
2023/02/04 03:59:36;;;;;;;;;21.50;16.75;;;;;12.61;69.20;102988.94;2070856;27;46716;-63
2023/02/04 04:00:36;;;;;;;;;19.50;16.25;;;;;12.60;69.02;102996.03;2070827;28;46124;-61
2023/02/04 04:01:36;;;;;;;;;16.75;16.00;;;;;12.59;69.22;102990.69;2070518;28;46598;-63
2023/02/04 04:02:37;;;;;;;;;16.00;15.25;;;;;12.59;69.12;102988.03;2070469;28;46692;-61
2023/02/04 04:03:37;;;;;;;;;16.25;16.00;;;;;12.59;69.36;102993.34;2070330;28;46814;-62
2023/02/04 04:04:37;;;;;;;;;18.75;18.25;;;;;12.59;69.00;102990.69;2070425;28;46451;-61
2023/02/04 04:05:38;;;;;;;;;23.50;18.75;;;;;12.57;69.15;102993.31;2070745;27;46468;-62
2023/02/04 04:06:38;;;;;;;;;22.75;19.50;;;;;12.55;69.15;102989.75;2067080;28;46275;-62
2023/02/04 04:07:38;;;;;;;;;14.00;12.75;;;;;12.56;69.24;102998.63;2065288;28;46579;-61
2023/02/04 04:08:39;;;;;;;;;17.75;17.75;;;;;12.55;69.22;102994.19;2065700;28;46367;-63
2023/02/04 04:09:39;;;;;;;;;15.25;15.25;;;;;12.54;69.29;102997.75;2070751;28;46613;-62
2023/02/04 04:10:39;;;;;;;;;17.25;16.00;;;;;12.52;68.93;102997.75;2067093;27;46348;-62
2023/02/04 04:11:40;;;;;;;;;19.75;18.75;;;;;12.53;69.22;103002.19;2064249;28;46827;-62
2023/02/04 04:12:40;;;;;;;;;25.25;20.25;;;;;12.53;69.27;102990.63;2070972;27;45389;-62
2023/02/04 04:13:40;;;;;;;;;22.25;17.50;;;;;12.53;69.30;102991.53;2069894;28;46159;-62
2023/02/04 04:14:41;;;;;;;;;18.25;17.00;;;;;12.52;69.22;102992.41;2070091;27;45075;-63
2023/02/04 04:15:41;;;;;;;;;18.50;15.00;;;;;12.54;69.28;103003.06;2070417;27;46889;-63
2023/02/04 04:16:41;;;;;;;;;18.50;17.00;;;;;12.53;69.19;102999.53;2070675;27;46606;-62
2023/02/04 04:17:42;;;;;;;;;21.75;18.50;;;;;12.54;69.33;102997.75;2070539;27;46299;-62
2023/02/04 04:18:42;;;;;;;;;16.00;16.00;;;;;12.55;69.27;103000.41;2070241;27;46160;-62
2023/02/04 04:19:43;;;;;;;;;16.00;15.00;;;;;12.56;69.32;103006.63;2070525;28;46203;-63
2023/02/04 04:20:44;;;;;;;;;15.20;15.20;;;;;12.54;69.36;103009.28;2070635;28;46428;-62
2023/02/04 04:21:44;;;;;;;;;9.00;8.00;;;;;12.54;69.18;103003.06;2070384;28;46344;-61
2023/02/04 04:22:44;;;;;;;;;19.50;18.00;;;;;12.54;69.34;103008.41;2071051;28;45509;-62
2023/02/04 04:23:45;;;;;;;;;16.00;16.00;;;;;12.53;69.38;103002.19;2062394;28;46671;-63
2023/02/04 04:24:45;;;;;;;;;20.25;17.75;;;;;12.53;69.34;103002.19;2065293;28;46233;-62
2023/02/04 04:25:45;;;;;;;;;18.00;18.00;;;;;12.53;69.24;103007.50;2070637;28;46297;-62
2023/02/04 04:26:46;;;;;;;;;14.67;13.67;;;;;12.52;69.35;103005.72;2063542;28;46191;-63
2023/02/04 04:27:46;;;;;;;;;24.25;18.00;;;;;12.53;69.14;103001.28;2061740;28;46321;-62
2023/02/04 04:28:46;;;;;;;;;16.25;15.25;;;;;12.53;69.26;103003.94;2070339;28;46257;-63
2023/02/04 04:29:47;;;;;;;;;18.00;18.00;;;;;12.53;69.28;103007.50;2070437;28;46741;-62
2023/02/04 04:30:47;;;;;;;;;15.67;14.67;;;;;12.52;69.40;103002.19;2070354;27;46241;-61
2023/02/04 04:31:47;;;;;;;;;23.75;18.50;;;;;12.52;69.41;103010.16;2062438;28;46569;-62
2023/02/04 04:32:48;;;;;;;;;19.00;18.00;;;;;12.50;69.43;103007.50;2065481;28;46422;-62
2023/02/04 04:33:48;;;;;;;;;18.00;16.00;;;;;12.51;69.37;103008.38;2070046;28;46700;-62
2023/02/04 04:34:48;;;;;;;;;16.75;15.50;;;;;12.50;69.43;103010.16;2066108;28;46858;-61
2023/02/04 04:35:49;;;;;;;;;15.00;15.00;;;;;12.50;69.47;103004.84;2069029;28;45929;-62
2023/02/04 04:36:49;;;;;;;;;16.25;16.00;;;;;12.51;69.38;103009.28;2062021;28;46320;-61
2023/02/04 04:37:49;;;;;;;;;18.50;15.00;;;;;12.51;69.51;103008.38;2062691;28;46833;-61
2023/02/04 04:38:50;;;;;;;;;14.33;14.00;;;;;12.52;69.41;103015.50;2066873;28;46376;-62